createdAt,value
2023-05-19T00:01:51.135Z,14.16
2023-05-19T00:04:22.799Z,14.20
2023-05-19T00:06:52.347Z,14.19
2023-05-19T00:09:21.380Z,14.12
2023-05-19T00:11:50.700Z,14.01
2023-05-19T00:14:22.531Z,14.11
2023-05-19T00:16:51.768Z,14.00
2023-05-19T00:19:20.021Z,14.01
2023-05-19T00:21:49.279Z,13.97
2023-05-19T00:24:17.552Z,13.94
2023-05-19T00:26:45.609Z,13.90
2023-05-19T00:29:13.895Z,13.85
2023-05-19T00:31:42.619Z,13.77
2023-05-19T00:34:10.995Z,13.86
2023-05-19T00:36:39.050Z,13.91
2023-05-19T00:39:07.575Z,13.92
2023-05-19T00:41:36.365Z,13.95
2023-05-19T00:44:04.815Z,13.98
2023-05-19T00:46:32.864Z,13.98
2023-05-19T00:49:00.996Z,14.02
2023-05-19T00:51:30.058Z,13.83
2023-05-19T00:53:58.770Z,13.85
2023-05-19T00:56:27.443Z,13.85
2023-05-19T00:58:56.011Z,13.87
2023-05-19T01:01:27.126Z,13.84
2023-05-19T01:03:59.358Z,13.81
2023-05-19T01:06:28.078Z,13.84
2023-05-19T01:08:57.785Z,13.65
2023-05-19T01:11:25.978Z,13.72
2023-05-19T01:13:54.245Z,13.75
2023-05-19T01:16:40.938Z,13.84
2023-05-19T01:19:25.677Z,13.83
2023-05-19T01:22:07.179Z,13.78
2023-05-19T01:24:59.173Z,13.68
2023-05-19T01:27:48.993Z,13.79
2023-05-19T01:30:20.012Z,13.83
2023-05-19T01:32:52.831Z,13.80
2023-05-19T01:35:25.113Z,13.81
2023-05-19T01:37:57.431Z,13.84
2023-05-19T01:40:27.024Z,13.83
2023-05-19T01:42:57.815Z,13.80
2023-05-19T01:45:29.746Z,13.80
2023-05-19T01:48:00.315Z,13.84
2023-05-19T01:50:30.054Z,13.84
2023-05-19T01:52:58.849Z,13.86
2023-05-19T01:55:27.473Z,13.93
2023-05-19T01:58:18.011Z,13.94
2023-05-19T02:00:53.209Z,13.99
2023-05-19T02:03:39.261Z,13.96
2023-05-19T02:06:16.357Z,13.98
2023-05-19T02:09:02.620Z,13.96
2023-05-19T02:11:56.997Z,14.11
2023-05-19T02:14:38.772Z,14.21
2023-05-19T02:17:07.228Z,14.19
2023-05-19T02:19:39.388Z,14.26
2023-05-19T02:22:07.878Z,14.30
2023-05-19T02:24:37.891Z,14.23
2023-05-19T02:27:06.609Z,14.25
2023-05-19T02:29:35.265Z,14.34
2023-05-19T02:32:03.552Z,14.48
2023-05-19T02:34:31.842Z,14.55
2023-05-19T02:37:00.264Z,14.70
2023-05-19T02:39:29.610Z,14.89
2023-05-19T02:41:57.831Z,15.03
2023-05-19T02:44:25.898Z,15.22
2023-05-19T02:46:54.202Z,15.25
2023-05-19T02:49:22.334Z,15.22
2023-05-19T02:51:50.718Z,15.25
2023-05-19T02:54:21.990Z,15.32
2023-05-19T02:56:50.297Z,15.47
2023-05-19T02:59:18.221Z,15.58
2023-05-19T03:01:47.945Z,15.62
2023-05-19T03:04:15.836Z,15.69
2023-05-19T03:06:45.856Z,15.87
2023-05-19T03:09:14.836Z,16.00
2023-05-19T03:11:43.391Z,16.05
2023-05-19T03:14:12.443Z,16.05
2023-05-19T03:16:42.713Z,16.06
2023-05-19T03:19:10.811Z,16.18
2023-05-19T03:21:41.660Z,16.24
2023-05-19T03:24:09.531Z,16.36
2023-05-19T03:26:38.343Z,16.32
2023-05-19T03:29:08.715Z,16.56
2023-05-19T03:31:38.570Z,16.52
2023-05-19T03:34:06.608Z,16.59
2023-05-19T03:36:39.937Z,16.74
2023-05-19T03:39:13.333Z,16.88
2023-05-19T03:41:41.964Z,16.76
2023-05-19T03:44:09.753Z,17.05
2023-05-19T03:46:38.744Z,17.16
2023-05-19T03:49:26.190Z,17.38
2023-05-19T03:52:13.237Z,17.46
2023-05-19T03:54:54.704Z,17.35
2023-05-19T03:57:23.026Z,17.32
2023-05-19T03:59:50.992Z,17.32
2023-05-19T04:02:19.488Z,17.38
2023-05-19T04:04:50.926Z,17.64
2023-05-19T04:07:19.763Z,17.65
2023-05-19T04:09:48.920Z,17.56
2023-05-19T04:12:17.328Z,17.71
2023-05-19T04:14:46.400Z,17.76
2023-05-19T04:17:14.746Z,17.92
2023-05-19T04:19:42.720Z,17.97
2023-05-19T04:22:10.918Z,18.15
2023-05-19T04:24:38.851Z,18.23
2023-05-19T04:27:12.332Z,18.16
2023-05-19T04:29:41.425Z,18.32
2023-05-19T04:32:10.989Z,18.61
2023-05-19T04:34:40.701Z,18.80
2023-05-19T04:37:10.550Z,18.76
2023-05-19T04:39:41.634Z,18.78
2023-05-19T04:42:11.676Z,18.81
2023-05-19T04:44:40.436Z,18.63
2023-05-19T04:47:11.901Z,18.71
2023-05-19T04:49:40.035Z,18.81
2023-05-19T04:52:11.146Z,18.79
2023-05-19T04:54:40.536Z,18.93
2023-05-19T04:57:11.609Z,18.96
2023-05-19T04:59:41.013Z,18.76
2023-05-19T05:02:10.095Z,18.64
2023-05-19T05:04:42.786Z,18.48
2023-05-19T05:07:11.747Z,18.45
2023-05-19T05:09:40.374Z,18.57
2023-05-19T05:12:09.677Z,18.40
2023-05-19T05:14:40.533Z,18.43
2023-05-19T05:17:11.225Z,18.52
2023-05-19T05:19:39.529Z,18.54
2023-05-19T05:22:08.464Z,18.56
2023-05-19T05:24:40.300Z,18.55
2023-05-19T05:27:10.550Z,18.69
2023-05-19T05:29:38.730Z,18.85
2023-05-19T05:32:08.686Z,18.75
2023-05-19T05:34:38.408Z,18.98
2023-05-19T05:37:06.958Z,19.03
2023-05-19T05:39:35.966Z,19.10
2023-05-19T05:42:04.402Z,19.24
2023-05-19T05:44:34.545Z,19.26
2023-05-19T05:47:04.559Z,19.36
2023-05-19T05:49:33.149Z,19.45
2023-05-19T05:52:06.111Z,19.39
2023-05-19T05:54:40.310Z,19.38
2023-05-19T05:57:09.917Z,19.57
2023-05-19T05:59:38.926Z,19.66
2023-05-19T06:02:07.849Z,19.70
2023-05-19T06:04:36.558Z,19.79
2023-05-19T06:07:05.803Z,20.05
2023-05-19T06:09:37.620Z,20.07
2023-05-19T06:12:07.770Z,19.77
2023-05-19T06:14:41.468Z,19.96
2023-05-19T06:17:36.398Z,20.07
2023-05-19T06:20:09.159Z,20.10
2023-05-19T06:22:40.964Z,20.13
2023-05-19T06:25:10.228Z,20.20
2023-05-19T06:27:38.741Z,20.17
2023-05-19T06:30:10.284Z,20.23
2023-05-19T06:32:58.986Z,20.38
2023-05-19T06:35:27.694Z,20.34
2023-05-19T06:37:56.654Z,20.20
2023-05-19T06:40:24.851Z,20.23
2023-05-19T06:42:53.232Z,20.48
2023-05-19T06:45:29.599Z,20.53
2023-05-19T06:47:59.773Z,20.47
2023-05-19T06:50:28.519Z,20.54
2023-05-19T06:52:59.174Z,20.62
2023-05-19T06:55:28.053Z,20.67
2023-05-19T06:57:56.605Z,20.69
2023-05-19T07:00:24.450Z,20.68
2023-05-19T07:02:54.518Z,20.74
2023-05-19T07:05:23.136Z,20.67
2023-05-19T07:07:56.873Z,20.60
2023-05-19T07:10:28.742Z,20.63
2023-05-19T07:12:58.739Z,20.74
2023-05-19T07:15:30.404Z,20.73
2023-05-19T07:17:59.376Z,20.90
2023-05-19T07:20:27.509Z,21.05
2023-05-19T07:22:56.494Z,21.05
2023-05-19T07:25:25.092Z,21.06
2023-05-19T07:27:53.698Z,20.99
2023-05-19T07:30:21.581Z,21.10
2023-05-19T07:32:50.843Z,21.03
2023-05-19T07:35:18.875Z,21.06
2023-05-19T07:37:47.097Z,21.09
2023-05-19T07:40:15.791Z,21.04
2023-05-19T07:42:49.012Z,21.14
2023-05-19T07:45:18.187Z,21.10
2023-05-19T07:47:46.580Z,21.19
2023-05-19T07:50:14.493Z,21.30
2023-05-19T07:52:43.044Z,21.52
2023-05-19T07:55:11.934Z,21.68
2023-05-19T07:57:40.177Z,21.71
2023-05-19T08:00:10.345Z,21.78
2023-05-19T08:02:40.686Z,21.88
2023-05-19T08:05:09.763Z,21.96
2023-05-19T08:07:38.184Z,21.96
2023-05-19T08:10:06.494Z,21.99
2023-05-19T08:12:34.923Z,22.17
2023-05-19T08:15:02.926Z,22.22
2023-05-19T08:17:33.195Z,22.32
2023-05-19T08:34:59.889Z,22.64
2023-05-19T08:37:28.681Z,22.63
2023-05-19T08:39:57.707Z,22.74
2023-05-19T08:42:26.147Z,22.56
2023-05-19T08:44:54.228Z,22.45
2023-05-19T08:47:23.133Z,22.40
2023-05-19T08:49:53.580Z,22.50
2023-05-19T08:52:36.723Z,22.37
2023-05-19T08:55:09.939Z,22.42
2023-05-19T08:57:38.797Z,22.47
2023-05-19T09:00:12.421Z,22.61
2023-05-19T09:02:50.618Z,22.68
2023-05-19T09:05:30.052Z,22.56
2023-05-19T09:07:58.462Z,22.71
2023-05-19T09:10:28.480Z,22.67
2023-05-19T09:12:57.965Z,22.69
2023-05-19T09:15:28.745Z,22.61
2023-05-19T09:18:11.853Z,22.59
2023-05-19T09:20:41.864Z,22.60
2023-05-19T09:23:18.073Z,22.68
2023-05-19T09:25:50.464Z,22.63
2023-05-19T09:28:29.717Z,22.57
2023-05-19T09:31:15.612Z,22.63
2023-05-19T09:33:45.759Z,22.49
2023-05-19T09:36:14.555Z,22.48
2023-05-19T09:38:42.916Z,22.53
2023-05-19T09:41:11.380Z,22.49
2023-05-19T09:43:39.848Z,22.48
2023-05-19T09:46:14.960Z,22.42
2023-05-19T09:48:45.263Z,22.50
2023-05-19T09:51:13.269Z,22.54
2023-05-19T09:53:42.443Z,22.51
2023-05-19T09:56:10.507Z,22.35
2023-05-19T09:58:42.940Z,22.42
2023-05-19T10:01:11.579Z,22.55
2023-05-19T10:03:40.790Z,22.37
2023-05-19T10:06:09.658Z,22.31
2023-05-19T10:08:40.026Z,22.35
2023-05-19T10:11:08.904Z,22.31
2023-05-19T10:13:39.328Z,22.38
2023-05-19T10:16:08.956Z,22.44
2023-05-19T10:18:40.023Z,22.46
2023-05-19T10:21:09.293Z,22.50
2023-05-19T10:23:37.713Z,22.40
2023-05-19T10:26:07.134Z,22.49
2023-05-19T10:28:39.599Z,22.58
2023-05-19T10:31:11.827Z,22.84
2023-05-19T10:33:58.628Z,22.96
2023-05-19T10:36:44.640Z,23.09
2023-05-19T10:39:25.670Z,23.10
2023-05-19T10:42:24.848Z,23.23
2023-05-19T10:45:18.382Z,23.21
2023-05-19T10:47:46.740Z,23.15
2023-05-19T10:50:16.015Z,23.24
2023-05-19T10:52:45.230Z,23.17
2023-05-19T10:55:17.899Z,23.08
2023-05-19T10:57:57.188Z,23.00
2023-05-19T11:00:30.583Z,23.00
2023-05-19T11:03:14.910Z,22.94
2023-05-19T11:05:45.953Z,22.94
2023-05-19T11:08:14.025Z,22.97
2023-05-19T11:10:47.040Z,23.16
2023-05-19T11:13:23.526Z,23.31
2023-05-19T11:18:21.339Z,23.32
2023-05-19T11:20:58.661Z,23.33
2023-05-19T11:23:26.998Z,23.06
2023-05-19T11:25:55.296Z,23.01
2023-05-19T11:28:28.490Z,22.99
2023-05-19T11:30:59.376Z,22.94
2023-05-19T11:33:30.487Z,22.97
2023-05-19T11:35:58.931Z,22.95
2023-05-19T11:38:30.384Z,23.00
2023-05-19T11:40:59.363Z,22.88
2023-05-19T11:43:27.809Z,22.77
2023-05-19T11:45:56.423Z,22.77
2023-05-19T11:48:26.969Z,22.76
2023-05-19T11:50:57.116Z,22.57
2023-05-19T11:53:25.264Z,22.60
2023-05-19T11:55:54.562Z,22.48
2023-05-19T11:58:28.071Z,22.48
2023-05-19T12:00:57.553Z,22.43
2023-05-19T12:03:29.004Z,22.48
2023-05-19T12:05:57.660Z,22.41
2023-05-19T12:08:26.096Z,22.27
2023-05-19T12:10:54.671Z,22.29
2023-05-19T12:13:23.735Z,22.33
2023-05-19T12:16:00.946Z,22.33
2023-05-19T12:18:32.150Z,22.34
2023-05-19T12:21:00.903Z,22.27
2023-05-19T12:23:31.087Z,22.29
2023-05-19T12:26:00.304Z,22.29
2023-05-19T12:28:31.445Z,22.25
2023-05-19T12:31:00.028Z,22.12
2023-05-19T12:33:27.992Z,22.05
2023-05-19T12:35:56.561Z,22.04
2023-05-19T12:38:24.535Z,21.95
2023-05-19T12:40:53.198Z,21.86
2023-05-19T12:43:22.823Z,21.85
2023-05-19T12:45:51.671Z,21.85
2023-05-19T12:48:23.006Z,21.87
2023-05-19T12:50:57.178Z,21.82
2023-05-19T12:53:27.470Z,21.83
2023-05-19T15:07:36.002Z,20.04
2023-05-19T15:10:05.210Z,20.06
2023-05-19T15:12:33.254Z,20.02
2023-05-19T15:15:01.651Z,19.97
2023-05-19T15:17:30.122Z,19.91
2023-05-19T15:19:58.440Z,19.85
2023-05-19T15:22:27.391Z,19.85
2023-05-19T15:24:55.830Z,19.78
2023-05-19T15:27:23.835Z,19.72
2023-05-19T15:29:52.232Z,19.55
2023-05-19T15:32:20.490Z,19.48
2023-05-19T15:34:49.281Z,19.38
2023-05-19T15:37:17.333Z,19.34
2023-05-19T15:39:45.869Z,19.39
2023-05-19T15:42:13.710Z,19.40
2023-05-19T15:44:41.963Z,19.43
2023-05-19T15:47:10.075Z,19.35
2023-05-19T15:49:38.450Z,19.36
2023-05-19T15:52:06.894Z,19.36
2023-05-19T15:54:35.274Z,19.34
2023-05-19T15:57:03.094Z,19.17
2023-05-19T15:59:31.472Z,19.07
2023-05-19T16:01:59.633Z,19.00
2023-05-19T16:04:27.840Z,18.99
2023-05-19T16:06:55.944Z,18.89
2023-05-19T16:09:24.185Z,18.82
2023-05-19T16:11:52.354Z,18.78
2023-05-19T16:14:21.136Z,18.75
2023-05-19T16:16:49.220Z,18.73
2023-05-19T16:19:17.985Z,18.74
2023-05-19T16:21:46.085Z,18.60
2023-05-19T16:24:14.322Z,18.58
2023-05-19T16:26:42.192Z,18.54
2023-05-19T16:29:10.425Z,18.48
2023-05-19T16:31:39.240Z,18.47
2023-05-19T16:34:07.657Z,18.44
2023-05-19T16:36:35.690Z,18.40
2023-05-19T16:39:04.290Z,18.30
2023-05-19T16:41:32.157Z,18.38
2023-05-19T16:44:02.554Z,18.34
2023-05-19T16:46:31.669Z,18.34
2023-05-19T16:49:00.575Z,18.32
2023-05-19T16:51:28.476Z,18.38
2023-05-19T16:53:56.833Z,18.35
2023-05-19T16:56:24.779Z,18.29
2023-05-19T16:58:54.908Z,18.30
2023-05-19T17:01:23.133Z,18.20
2023-05-19T17:03:51.880Z,18.19
2023-05-19T17:06:19.804Z,18.14
2023-05-19T17:08:48.164Z,18.15
2023-05-19T17:11:16.175Z,18.12
2023-05-19T17:13:46.605Z,18.18
2023-05-19T17:16:14.851Z,18.15
2023-05-19T17:18:44.072Z,18.13
2023-05-19T17:21:12.311Z,18.14
2023-05-19T17:23:42.167Z,18.15
2023-05-19T17:26:10.116Z,18.10
2023-05-19T17:28:38.393Z,18.10
2023-05-19T17:31:12.696Z,18.08
2023-05-19T17:33:41.548Z,18.08
2023-05-19T17:36:09.934Z,18.09
2023-05-19T17:38:40.594Z,18.11
2023-05-19T17:41:14.263Z,18.04
2023-05-19T17:43:43.156Z,18.02
2023-05-19T17:46:12.041Z,18.04
2023-05-19T17:48:40.501Z,18.04
2023-05-19T17:51:08.520Z,18.00
2023-05-19T17:53:37.370Z,17.99
2023-05-19T17:56:07.608Z,17.94
2023-05-19T17:58:36.637Z,17.96
2023-05-19T18:01:04.849Z,17.92
2023-05-19T18:03:33.656Z,17.98
2023-05-19T18:06:02.491Z,17.97
2023-05-19T18:08:32.235Z,17.98
2023-05-19T18:11:01.029Z,17.92
2023-05-19T18:13:29.281Z,17.96
2023-05-19T18:15:59.416Z,17.94
2023-05-19T18:18:27.892Z,17.91
2023-05-19T18:20:55.813Z,17.88
2023-05-19T18:23:24.120Z,17.92
2023-05-19T18:25:53.961Z,17.89
2023-05-19T18:28:24.134Z,17.86
2023-05-19T18:31:15.890Z,17.94
2023-05-19T18:33:44.528Z,17.94
2023-05-19T18:36:15.755Z,17.94
2023-05-19T18:38:44.351Z,17.86
2023-05-19T18:41:12.331Z,17.84
2023-05-19T18:43:40.693Z,17.89
2023-05-19T18:46:08.556Z,17.86
2023-05-19T18:48:36.906Z,17.88
2023-05-19T18:51:05.273Z,17.84
2023-05-19T18:53:35.069Z,17.83
2023-05-19T18:56:06.800Z,17.84
2023-05-19T18:58:35.199Z,17.81
2023-05-19T19:01:03.028Z,17.82
2023-05-19T19:03:31.792Z,17.82
2023-05-19T19:06:00.747Z,17.74
2023-05-19T19:08:29.094Z,17.73
2023-05-19T19:11:00.526Z,17.67
2023-05-19T19:13:29.053Z,17.63
2023-05-19T19:15:57.006Z,17.64
2023-05-19T19:18:26.419Z,17.62
2023-05-19T19:20:55.227Z,17.68
2023-05-19T19:23:24.113Z,17.73
2023-05-19T19:25:52.227Z,17.78
2023-05-19T19:28:21.046Z,17.77
2023-05-19T19:30:49.991Z,17.69
2023-05-19T19:33:18.435Z,17.62
2023-05-19T19:35:47.211Z,17.64
2023-05-19T19:38:15.415Z,17.60
2023-05-19T19:40:43.402Z,17.57
2023-05-19T19:43:11.684Z,17.52
2023-05-19T19:45:39.955Z,17.50
2023-05-19T19:48:09.629Z,17.50
2023-05-19T19:50:39.130Z,17.46
2023-05-19T19:53:09.030Z,17.48
2023-05-19T19:55:37.042Z,17.49
2023-05-19T19:58:05.288Z,17.55
2023-05-19T20:00:33.363Z,17.47
2023-05-19T20:03:05.507Z,17.50
2023-05-19T20:05:34.553Z,17.39
2023-05-19T20:08:02.830Z,17.36
2023-05-19T20:10:30.684Z,17.33
2023-05-19T20:12:59.771Z,17.45
2023-05-19T20:15:28.338Z,17.46
2023-05-19T20:17:56.579Z,17.48
2023-05-19T20:20:25.086Z,17.45
2023-05-19T20:22:53.350Z,17.50
2023-05-19T20:25:21.268Z,17.47
2023-05-19T20:27:50.431Z,17.50
2023-05-19T20:30:18.780Z,17.53
2023-05-19T20:32:50.982Z,17.50
2023-05-19T20:35:19.385Z,17.51
2023-05-19T20:37:48.266Z,17.49
2023-05-19T20:40:16.274Z,17.48
2023-05-19T20:42:45.115Z,17.54
2023-05-19T20:45:13.046Z,17.52
2023-05-19T20:47:41.298Z,17.52
2023-05-19T20:50:09.641Z,17.46
2023-05-19T20:52:37.922Z,17.48
2023-05-19T20:55:06.001Z,17.57
2023-05-19T20:57:34.520Z,17.55
2023-05-19T21:00:02.902Z,17.52
2023-05-19T21:02:37.980Z,17.55
2023-05-19T21:05:06.324Z,17.54
2023-05-19T21:07:34.715Z,17.54
2023-05-19T21:10:02.957Z,17.53
2023-05-19T21:12:34.324Z,17.51
2023-05-19T21:15:03.988Z,17.50
2023-05-19T21:17:32.418Z,17.49
2023-05-19T21:20:00.940Z,17.50
2023-05-19T21:22:32.425Z,17.51
2023-05-19T21:25:00.445Z,17.53
2023-05-19T21:27:28.677Z,17.56
2023-05-19T21:29:56.612Z,17.57
2023-05-19T21:32:41.622Z,17.57
2023-05-19T21:35:09.814Z,17.52
2023-05-19T21:37:38.634Z,17.51
2023-05-19T21:40:08.311Z,17.52
2023-05-19T21:42:36.876Z,17.47
2023-05-19T21:45:05.399Z,17.54
2023-05-19T21:47:34.741Z,17.52
2023-05-19T21:50:02.879Z,17.57
2023-05-19T21:52:32.681Z,17.53
2023-05-19T21:55:00.511Z,17.52
2023-05-19T21:57:28.711Z,17.51
2023-05-19T21:59:56.853Z,17.53
2023-05-19T22:02:27.694Z,17.50
2023-05-19T22:05:16.424Z,17.52
2023-05-19T22:07:46.530Z,17.53
2023-05-19T22:10:14.622Z,17.52
2023-05-19T22:12:42.928Z,17.53
2023-05-19T22:15:11.814Z,17.55
2023-05-19T22:17:40.109Z,17.52
2023-05-19T22:20:08.590Z,17.49
2023-05-19T22:22:36.931Z,17.42
2023-05-19T22:25:05.326Z,17.45
2023-05-19T22:27:33.569Z,17.42
2023-05-19T22:30:01.475Z,17.41
2023-05-19T22:32:33.255Z,17.39
2023-05-19T22:35:01.735Z,17.38
2023-05-19T22:37:32.501Z,17.37
2023-05-19T22:40:00.573Z,17.36
2023-05-19T22:42:30.975Z,17.34
2023-05-19T22:44:59.285Z,17.31
2023-05-19T22:47:27.785Z,17.25
2023-05-19T22:49:57.183Z,17.20
2023-05-19T22:52:26.210Z,17.19
2023-05-19T22:54:54.152Z,17.16
2023-05-19T22:57:22.628Z,17.16
2023-05-19T22:59:50.626Z,17.14
2023-05-19T23:02:20.037Z,17.07
2023-05-19T23:04:48.146Z,17.08
2023-05-19T23:07:16.446Z,17.08
2023-05-19T23:09:44.336Z,17.08
2023-05-19T23:12:12.794Z,16.91
2023-05-19T23:14:40.637Z,16.85
2023-05-19T23:17:09.153Z,16.88
2023-05-19T23:19:37.516Z,16.87
2023-05-19T23:22:05.905Z,16.85
2023-05-19T23:24:35.797Z,16.82
2023-05-19T23:27:04.135Z,16.82
2023-05-19T23:29:32.136Z,16.78
2023-05-19T23:32:00.509Z,16.74
2023-05-19T23:34:28.570Z,16.73
2023-05-19T23:36:56.729Z,16.73
2023-05-19T23:39:25.638Z,16.65
2023-05-19T23:41:53.839Z,16.61
2023-05-19T23:44:21.787Z,16.62
2023-05-19T23:46:50.537Z,16.62
2023-05-19T23:49:18.529Z,16.64
2023-05-19T23:51:47.008Z,16.66
2023-05-19T23:54:14.799Z,16.68
2023-05-19T23:56:43.116Z,16.68
2023-05-19T23:59:12.210Z,16.63
